sensor_id;sensor_type;location;lat;lon;timestamp;P1;durP1;ratioP1;P2;durP2;ratioP2
2848;SDS011;59355;52.416;13.412;2023-10-08T00:01:43;3.23;;;2.00;;
2848;SDS011;59355;52.416;13.412;2023-10-08T00:04:09;3.53;;;2.10;;
2848;SDS011;59355;52.416;13.412;2023-10-08T00:06:43;3.00;;;1.70;;
2848;SDS011;59355;52.416;13.412;2023-10-08T00:09:10;4.30;;;2.10;;
2848;SDS011;59355;52.416;13.412;2023-10-08T00:11:36;3.23;;;1.90;;
2848;SDS011;59355;52.416;13.412;2023-10-08T00:14:02;4.73;;;2.33;;
2848;SDS011;59355;52.416;13.412;2023-10-08T00:16:30;3.40;;;2.00;;
2848;SDS011;59355;52.416;13.412;2023-10-08T00:18:58;4.70;;;2.50;;
2848;SDS011;59355;52.416;13.412;2023-10-08T00:21:28;5.37;;;2.43;;
2848;SDS011;59355;52.416;13.412;2023-10-08T00:23:56;5.80;;;2.87;;
2848;SDS011;59355;52.416;13.412;2023-10-08T00:26:24;7.47;;;2.77;;
2848;SDS011;59355;52.416;13.412;2023-10-08T00:28:55;6.60;;;3.10;;
2848;SDS011;59355;52.416;13.412;2023-10-08T00:31:21;5.27;;;2.67;;
2848;SDS011;59355;52.416;13.412;2023-10-08T00:33:49;3.70;;;2.03;;
2848;SDS011;59355;52.416;13.412;2023-10-08T00:36:14;4.50;;;2.10;;
2848;SDS011;59355;52.416;13.412;2023-10-08T00:38:43;4.80;;;2.23;;
2848;SDS011;59355;52.416;13.412;2023-10-08T00:41:12;2.43;;;1.80;;
2848;SDS011;59355;52.416;13.412;2023-10-08T00:43:39;3.07;;;2.10;;
2848;SDS011;59355;52.416;13.412;2023-10-08T00:46:06;3.93;;;2.43;;
2848;SDS011;59355;52.416;13.412;2023-10-08T00:48:46;4.00;;;2.20;;
2848;SDS011;59355;52.416;13.412;2023-10-08T00:51:12;3.03;;;1.70;;
2848;SDS011;59355;52.416;13.412;2023-10-08T00:56:23;4.93;;;3.00;;
2848;SDS011;59355;52.416;13.412;2023-10-08T00:59:09;4.70;;;2.50;;
2848;SDS011;59355;52.416;13.412;2023-10-08T01:01:37;4.47;;;2.87;;
2848;SDS011;59355;52.416;13.412;2023-10-08T01:04:04;5.37;;;2.73;;
2848;SDS011;59355;52.416;13.412;2023-10-08T01:06:36;2.93;;;2.40;;
2848;SDS011;59355;52.416;13.412;2023-10-08T01:09:04;6.10;;;2.60;;
2848;SDS011;59355;52.416;13.412;2023-10-08T01:11:42;7.17;;;3.30;;
2848;SDS011;59355;52.416;13.412;2023-10-08T01:14:14;5.97;;;3.03;;
2848;SDS011;59355;52.416;13.412;2023-10-08T01:16:40;6.43;;;2.77;;
2848;SDS011;59355;52.416;13.412;2023-10-08T01:19:09;5.20;;;2.53;;
2848;SDS011;59355;52.416;13.412;2023-10-08T01:21:38;4.60;;;2.90;;
2848;SDS011;59355;52.416;13.412;2023-10-08T01:24:04;3.70;;;2.40;;
2848;SDS011;59355;52.416;13.412;2023-10-08T01:26:33;4.90;;;2.50;;
2848;SDS011;59355;52.416;13.412;2023-10-08T01:28:59;10.97;;;2.90;;
2848;SDS011;59355;52.416;13.412;2023-10-08T01:31:28;5.40;;;2.90;;
2848;SDS011;59355;52.416;13.412;2023-10-08T01:33:54;8.07;;;3.07;;
2848;SDS011;59355;52.416;13.412;2023-10-08T01:36:21;5.87;;;3.97;;
2848;SDS011;59355;52.416;13.412;2023-10-08T01:38:48;5.43;;;2.63;;
2848;SDS011;59355;52.416;13.412;2023-10-08T01:41:14;7.27;;;2.50;;
2848;SDS011;59355;52.416;13.412;2023-10-08T01:43:50;3.60;;;2.60;;
2848;SDS011;59355;52.416;13.412;2023-10-08T01:46:17;3.93;;;3.23;;
2848;SDS011;59355;52.416;13.412;2023-10-08T01:48:43;4.73;;;2.60;;
2848;SDS011;59355;52.416;13.412;2023-10-08T01:51:10;4.00;;;2.33;;
2848;SDS011;59355;52.416;13.412;2023-10-08T01:53:37;4.20;;;2.50;;
2848;SDS011;59355;52.416;13.412;2023-10-08T01:56:03;5.10;;;2.33;;
2848;SDS011;59355;52.416;13.412;2023-10-08T01:58:29;4.23;;;2.13;;
2848;SDS011;59355;52.416;13.412;2023-10-08T02:00:54;6.87;;;2.90;;
2848;SDS011;59355;52.416;13.412;2023-10-08T02:03:23;8.17;;;3.13;;
2848;SDS011;59355;52.416;13.412;2023-10-08T02:05:49;10.23;;;2.80;;
2848;SDS011;59355;52.416;13.412;2023-10-08T02:08:18;5.83;;;3.40;;
2848;SDS011;59355;52.416;13.412;2023-10-08T02:10:44;5.87;;;3.90;;
2848;SDS011;59355;52.416;13.412;2023-10-08T02:13:12;6.07;;;2.87;;
2848;SDS011;59355;52.416;13.412;2023-10-08T02:15:43;7.07;;;3.20;;
2848;SDS011;59355;52.416;13.412;2023-10-08T02:18:09;11.30;;;2.90;;
2848;SDS011;59355;52.416;13.412;2023-10-08T02:20:35;5.20;;;3.00;;
2848;SDS011;59355;52.416;13.412;2023-10-08T02:23:01;6.87;;;2.90;;
2848;SDS011;59355;52.416;13.412;2023-10-08T02:25:26;4.37;;;2.80;;
2848;SDS011;59355;52.416;13.412;2023-10-08T02:27:52;6.10;;;3.53;;
2848;SDS011;59355;52.416;13.412;2023-10-08T02:30:18;8.97;;;3.90;;
2848;SDS011;59355;52.416;13.412;2023-10-08T02:32:43;10.23;;;3.60;;
2848;SDS011;59355;52.416;13.412;2023-10-08T02:35:09;6.37;;;4.20;;
2848;SDS011;59355;52.416;13.412;2023-10-08T02:37:36;11.47;;;4.70;;
2848;SDS011;59355;52.416;13.412;2023-10-08T02:40:04;5.50;;;4.03;;
2848;SDS011;59355;52.416;13.412;2023-10-08T02:42:50;5.87;;;4.30;;
2848;SDS011;59355;52.416;13.412;2023-10-08T02:45:16;7.30;;;4.70;;
2848;SDS011;59355;52.416;13.412;2023-10-08T02:47:43;14.13;;;5.00;;
2848;SDS011;59355;52.416;13.412;2023-10-08T02:50:11;7.90;;;4.87;;
2848;SDS011;59355;52.416;13.412;2023-10-08T02:52:41;8.73;;;5.50;;
2848;SDS011;59355;52.416;13.412;2023-10-08T02:55:09;9.00;;;4.70;;
2848;SDS011;59355;52.416;13.412;2023-10-08T02:57:48;8.00;;;5.00;;
2848;SDS011;59355;52.416;13.412;2023-10-08T03:00:15;7.93;;;5.30;;
2848;SDS011;59355;52.416;13.412;2023-10-08T03:02:46;7.50;;;5.03;;
2848;SDS011;59355;52.416;13.412;2023-10-08T03:05:12;6.90;;;5.63;;
2848;SDS011;59355;52.416;13.412;2023-10-08T03:07:42;6.97;;;5.90;;
2848;SDS011;59355;52.416;13.412;2023-10-08T03:10:08;7.70;;;6.00;;
2848;SDS011;59355;52.416;13.412;2023-10-08T03:12:43;7.83;;;5.37;;
2848;SDS011;59355;52.416;13.412;2023-10-08T03:15:11;14.03;;;6.53;;
2848;SDS011;59355;52.416;13.412;2023-10-08T03:17:41;8.33;;;5.10;;
2848;SDS011;59355;52.416;13.412;2023-10-08T03:20:16;8.60;;;5.67;;
2848;SDS011;59355;52.416;13.412;2023-10-08T03:23:00;12.60;;;6.10;;
2848;SDS011;59355;52.416;13.412;2023-10-08T03:25:30;13.77;;;6.07;;
2848;SDS011;59355;52.416;13.412;2023-10-08T03:27:55;8.10;;;5.37;;
2848;SDS011;59355;52.416;13.412;2023-10-08T03:30:24;9.40;;;5.37;;
2848;SDS011;59355;52.416;13.412;2023-10-08T03:32:51;7.70;;;4.87;;
2848;SDS011;59355;52.416;13.412;2023-10-08T03:35:20;7.57;;;5.20;;
2848;SDS011;59355;52.416;13.412;2023-10-08T03:37:52;6.20;;;4.10;;
2848;SDS011;59355;52.416;13.412;2023-10-08T03:40:19;12.67;;;5.70;;
2848;SDS011;59355;52.416;13.412;2023-10-08T03:43:07;8.00;;;4.77;;
2848;SDS011;59355;52.416;13.412;2023-10-08T03:45:40;9.77;;;4.70;;
2848;SDS011;59355;52.416;13.412;2023-10-08T03:48:24;6.63;;;4.33;;
2848;SDS011;59355;52.416;13.412;2023-10-08T03:50:50;7.77;;;5.13;;
2848;SDS011;59355;52.416;13.412;2023-10-08T03:53:31;7.40;;;4.20;;
2848;SDS011;59355;52.416;13.412;2023-10-08T03:55:58;7.10;;;4.90;;
2848;SDS011;59355;52.416;13.412;2023-10-08T03:58:29;11.70;;;4.67;;
2848;SDS011;59355;52.416;13.412;2023-10-08T04:00:56;9.57;;;5.10;;
2848;SDS011;59355;52.416;13.412;2023-10-08T04:03:36;9.70;;;4.40;;
2848;SDS011;59355;52.416;13.412;2023-10-08T04:06:23;8.53;;;4.63;;
2848;SDS011;59355;52.416;13.412;2023-10-08T04:08:59;10.50;;;4.10;;
2848;SDS011;59355;52.416;13.412;2023-10-08T04:11:41;7.60;;;4.20;;
2848;SDS011;59355;52.416;13.412;2023-10-08T04:14:12;6.10;;;4.00;;
2848;SDS011;59355;52.416;13.412;2023-10-08T04:16:38;10.80;;;4.13;;
2848;SDS011;59355;52.416;13.412;2023-10-08T04:19:03;5.13;;;3.87;;
2848;SDS011;59355;52.416;13.412;2023-10-08T04:21:29;6.03;;;3.83;;
2848;SDS011;59355;52.416;13.412;2023-10-08T04:23:54;7.90;;;3.70;;
2848;SDS011;59355;52.416;13.412;2023-10-08T04:26:22;10.20;;;3.80;;
2848;SDS011;59355;52.416;13.412;2023-10-08T04:28:49;9.77;;;4.70;;
2848;SDS011;59355;52.416;13.412;2023-10-08T04:31:22;13.63;;;4.73;;
2848;SDS011;59355;52.416;13.412;2023-10-08T04:33:52;7.50;;;4.03;;
2848;SDS011;59355;52.416;13.412;2023-10-08T04:36:18;14.33;;;4.00;;
2848;SDS011;59355;52.416;13.412;2023-10-08T04:38:44;8.30;;;4.23;;
2848;SDS011;59355;52.416;13.412;2023-10-08T04:41:12;8.00;;;4.23;;
2848;SDS011;59355;52.416;13.412;2023-10-08T04:43:42;7.87;;;4.00;;
2848;SDS011;59355;52.416;13.412;2023-10-08T04:46:08;11.23;;;4.30;;
2848;SDS011;59355;52.416;13.412;2023-10-08T04:49:04;8.63;;;4.10;;
2848;SDS011;59355;52.416;13.412;2023-10-08T04:51:32;6.70;;;4.00;;
2848;SDS011;59355;52.416;13.412;2023-10-08T04:54:08;5.40;;;4.17;;
2848;SDS011;59355;52.416;13.412;2023-10-08T04:56:34;7.00;;;4.00;;
2848;SDS011;59355;52.416;13.412;2023-10-08T04:58:59;7.40;;;4.77;;
2848;SDS011;59355;52.416;13.412;2023-10-08T05:01:25;7.13;;;3.90;;
2848;SDS011;59355;52.416;13.412;2023-10-08T05:04:03;7.80;;;4.20;;
2848;SDS011;59355;52.416;13.412;2023-10-08T05:06:29;8.27;;;4.33;;
2848;SDS011;59355;52.416;13.412;2023-10-08T05:09:08;8.07;;;4.23;;
2848;SDS011;59355;52.416;13.412;2023-10-08T05:11:37;10.90;;;4.30;;
2848;SDS011;59355;52.416;13.412;2023-10-08T05:14:16;10.80;;;4.30;;
2848;SDS011;59355;52.416;13.412;2023-10-08T05:16:57;7.60;;;3.50;;
2848;SDS011;59355;52.416;13.412;2023-10-08T05:19:34;10.13;;;4.70;;
2848;SDS011;59355;52.416;13.412;2023-10-08T05:22:05;6.40;;;3.60;;
2848;SDS011;59355;52.416;13.412;2023-10-08T05:24:51;5.00;;;4.17;;
2848;SDS011;59355;52.416;13.412;2023-10-08T05:27:35;11.83;;;4.30;;
2848;SDS011;59355;52.416;13.412;2023-10-08T05:30:19;14.57;;;3.90;;
2848;SDS011;59355;52.416;13.412;2023-10-08T05:33:05;8.53;;;5.40;;
2848;SDS011;59355;52.416;13.412;2023-10-08T05:35:41;7.40;;;3.90;;
2848;SDS011;59355;52.416;13.412;2023-10-08T05:38:10;8.73;;;4.30;;
2848;SDS011;59355;52.416;13.412;2023-10-08T05:40:54;6.80;;;3.30;;
2848;SDS011;59355;52.416;13.412;2023-10-08T05:43:29;5.67;;;4.40;;
2848;SDS011;59355;52.416;13.412;2023-10-08T05:46:11;7.37;;;3.80;;
2848;SDS011;59355;52.416;13.412;2023-10-08T05:51:37;10.27;;;3.90;;
2848;SDS011;59355;52.416;13.412;2023-10-08T05:54:12;7.30;;;3.90;;
2848;SDS011;59355;52.416;13.412;2023-10-08T06:02:21;13.47;;;4.50;;
2848;SDS011;59355;52.416;13.412;2023-10-08T06:05:10;7.53;;;3.87;;
2848;SDS011;59355;52.416;13.412;2023-10-08T06:07:43;12.77;;;5.40;;
2848;SDS011;59355;52.416;13.412;2023-10-08T06:10:19;6.93;;;3.80;;
2848;SDS011;59355;52.416;13.412;2023-10-08T06:13:07;5.97;;;3.53;;
2848;SDS011;59355;52.416;13.412;2023-10-08T06:15:42;6.77;;;3.53;;
2848;SDS011;59355;52.416;13.412;2023-10-08T06:18:24;13.63;;;4.63;;
2848;SDS011;59355;52.416;13.412;2023-10-08T06:20:51;5.53;;;3.73;;
2848;SDS011;59355;52.416;13.412;2023-10-08T06:23:20;10.13;;;4.00;;
2848;SDS011;59355;52.416;13.412;2023-10-08T06:25:48;4.30;;;3.10;;
2848;SDS011;59355;52.416;13.412;2023-10-08T06:28:30;6.70;;;3.73;;
2848;SDS011;59355;52.416;13.412;2023-10-08T06:30:55;4.50;;;3.63;;
2848;SDS011;59355;52.416;13.412;2023-10-08T06:33:22;6.63;;;3.87;;
2848;SDS011;59355;52.416;13.412;2023-10-08T06:35:55;9.40;;;4.23;;
2848;SDS011;59355;52.416;13.412;2023-10-08T06:38:36;10.30;;;4.00;;
2848;SDS011;59355;52.416;13.412;2023-10-08T06:41:06;10.20;;;3.97;;
2848;SDS011;59355;52.416;13.412;2023-10-08T06:43:43;6.20;;;3.67;;
2848;SDS011;59355;52.416;13.412;2023-10-08T06:46:13;8.20;;;4.30;;
2848;SDS011;59355;52.416;13.412;2023-10-08T06:48:39;8.80;;;4.50;;
2848;SDS011;59355;52.416;13.412;2023-10-08T06:51:11;5.60;;;3.50;;
2848;SDS011;59355;52.416;13.412;2023-10-08T06:53:40;8.03;;;3.27;;
2848;SDS011;59355;52.416;13.412;2023-10-08T06:56:13;7.93;;;3.13;;
2848;SDS011;59355;52.416;13.412;2023-10-08T06:58:40;7.40;;;3.20;;
2848;SDS011;59355;52.416;13.412;2023-10-08T07:01:10;4.57;;;2.77;;
2848;SDS011;59355;52.416;13.412;2023-10-08T07:03:38;7.83;;;3.07;;
2848;SDS011;59355;52.416;13.412;2023-10-08T07:06:03;4.43;;;2.70;;
2848;SDS011;59355;52.416;13.412;2023-10-08T07:08:41;5.57;;;3.33;;
2848;SDS011;59355;52.416;13.412;2023-10-08T07:11:08;4.90;;;3.17;;
2848;SDS011;59355;52.416;13.412;2023-10-08T07:13:36;6.00;;;2.90;;
2848;SDS011;59355;52.416;13.412;2023-10-08T07:16:02;5.40;;;2.63;;
2848;SDS011;59355;52.416;13.412;2023-10-08T07:18:29;5.27;;;2.47;;
2848;SDS011;59355;52.416;13.412;2023-10-08T07:20:56;5.50;;;2.67;;
2848;SDS011;59355;52.416;13.412;2023-10-08T07:23:26;6.43;;;3.83;;
2848;SDS011;59355;52.416;13.412;2023-10-08T07:26:01;4.87;;;2.73;;
2848;SDS011;59355;52.416;13.412;2023-10-08T07:28:39;5.97;;;2.90;;
2848;SDS011;59355;52.416;13.412;2023-10-08T07:31:12;4.37;;;3.20;;
2848;SDS011;59355;52.416;13.412;2023-10-08T07:33:44;5.07;;;2.67;;
2848;SDS011;59355;52.416;13.412;2023-10-08T07:36:11;3.97;;;2.60;;
2848;SDS011;59355;52.416;13.412;2023-10-08T07:38:42;4.93;;;2.10;;
2848;SDS011;59355;52.416;13.412;2023-10-08T07:41:10;4.63;;;2.40;;
2848;SDS011;59355;52.416;13.412;2023-10-08T07:43:42;3.30;;;2.30;;
2848;SDS011;59355;52.416;13.412;2023-10-08T07:46:08;5.57;;;2.07;;
2848;SDS011;59355;52.416;13.412;2023-10-08T07:48:38;8.13;;;2.10;;
2848;SDS011;59355;52.416;13.412;2023-10-08T07:51:09;3.20;;;2.10;;
2848;SDS011;59355;52.416;13.412;2023-10-08T07:53:34;2.73;;;2.00;;
2848;SDS011;59355;52.416;13.412;2023-10-08T07:56:05;4.73;;;2.00;;
2848;SDS011;59355;52.416;13.412;2023-10-08T07:58:36;5.47;;;2.10;;
2848;SDS011;59355;52.416;13.412;2023-10-08T08:01:02;3.33;;;1.90;;
2848;SDS011;59355;52.416;13.412;2023-10-08T08:03:31;4.33;;;1.77;;
2848;SDS011;59355;52.416;13.412;2023-10-08T08:05:56;5.07;;;2.70;;
2848;SDS011;59355;52.416;13.412;2023-10-08T08:08:23;2.90;;;1.70;;
2848;SDS011;59355;52.416;13.412;2023-10-08T08:10:52;3.57;;;1.80;;
2848;SDS011;59355;52.416;13.412;2023-10-08T08:13:22;2.30;;;1.60;;
2848;SDS011;59355;52.416;13.412;2023-10-08T08:15:48;3.23;;;1.63;;
2848;SDS011;59355;52.416;13.412;2023-10-08T08:18:16;3.60;;;1.63;;
2848;SDS011;59355;52.416;13.412;2023-10-08T08:20:47;3.77;;;2.40;;
2848;SDS011;59355;52.416;13.412;2023-10-08T08:23:12;3.47;;;2.50;;
2848;SDS011;59355;52.416;13.412;2023-10-08T08:25:39;3.43;;;1.83;;
2848;SDS011;59355;52.416;13.412;2023-10-08T08:28:11;4.67;;;1.97;;
2848;SDS011;59355;52.416;13.412;2023-10-08T08:30:45;2.40;;;1.80;;
2848;SDS011;59355;52.416;13.412;2023-10-08T08:33:13;3.90;;;1.77;;
2848;SDS011;59355;52.416;13.412;2023-10-08T08:35:42;2.77;;;1.50;;
2848;SDS011;59355;52.416;13.412;2023-10-08T08:38:07;2.60;;;1.50;;
2848;SDS011;59355;52.416;13.412;2023-10-08T08:40:33;5.90;;;2.00;;
2848;SDS011;59355;52.416;13.412;2023-10-08T08:42:59;3.60;;;1.90;;
2848;SDS011;59355;52.416;13.412;2023-10-08T08:45:27;2.70;;;2.00;;
2848;SDS011;59355;52.416;13.412;2023-10-08T08:47:56;5.17;;;1.80;;
2848;SDS011;59355;52.416;13.412;2023-10-08T08:50:22;3.23;;;1.87;;
2848;SDS011;59355;52.416;13.412;2023-10-08T08:52:47;5.70;;;2.03;;
2848;SDS011;59355;52.416;13.412;2023-10-08T08:55:12;4.53;;;1.90;;
2848;SDS011;59355;52.416;13.412;2023-10-08T08:57:49;2.63;;;1.50;;
2848;SDS011;59355;52.416;13.412;2023-10-08T09:00:16;2.40;;;1.60;;
2848;SDS011;59355;52.416;13.412;2023-10-08T09:02:42;4.43;;;1.70;;
2848;SDS011;59355;52.416;13.412;2023-10-08T09:05:09;7.50;;;2.17;;
2848;SDS011;59355;52.416;13.412;2023-10-08T09:08:01;3.80;;;2.23;;
2848;SDS011;59355;52.416;13.412;2023-10-08T09:10:32;2.10;;;1.50;;
2848;SDS011;59355;52.416;13.412;2023-10-08T09:13:02;2.47;;;1.57;;
2848;SDS011;59355;52.416;13.412;2023-10-08T09:15:28;3.10;;;1.53;;
2848;SDS011;59355;52.416;13.412;2023-10-08T09:17:54;4.03;;;1.90;;
2848;SDS011;59355;52.416;13.412;2023-10-08T09:20:21;3.03;;;1.40;;
2848;SDS011;59355;52.416;13.412;2023-10-08T09:22:59;2.40;;;2.00;;
2848;SDS011;59355;52.416;13.412;2023-10-08T09:25:32;2.60;;;1.90;;
2848;SDS011;59355;52.416;13.412;2023-10-08T09:27:57;2.73;;;1.50;;
2848;SDS011;59355;52.416;13.412;2023-10-08T09:30:23;2.70;;;1.40;;
2848;SDS011;59355;52.416;13.412;2023-10-08T09:32:50;2.00;;;1.40;;
2848;SDS011;59355;52.416;13.412;2023-10-08T09:35:16;2.27;;;1.53;;
2848;SDS011;59355;52.416;13.412;2023-10-08T09:37:42;2.00;;;1.60;;
2848;SDS011;59355;52.416;13.412;2023-10-08T09:40:08;2.00;;;1.33;;
2848;SDS011;59355;52.416;13.412;2023-10-08T09:42:36;1.80;;;1.37;;
2848;SDS011;59355;52.416;13.412;2023-10-08T09:45:03;3.10;;;1.70;;
2848;SDS011;59355;52.416;13.412;2023-10-08T09:47:31;2.77;;;1.50;;
2848;SDS011;59355;52.416;13.412;2023-10-08T09:50:02;2.93;;;1.27;;
2848;SDS011;59355;52.416;13.412;2023-10-08T09:52:42;2.10;;;1.40;;
2848;SDS011;59355;52.416;13.412;2023-10-08T09:55:21;2.37;;;1.30;;
2848;SDS011;59355;52.416;13.412;2023-10-08T09:57:46;2.80;;;1.97;;
2848;SDS011;59355;52.416;13.412;2023-10-08T10:00:12;3.63;;;1.60;;
2848;SDS011;59355;52.416;13.412;2023-10-08T10:02:43;2.00;;;1.30;;
2848;SDS011;59355;52.416;13.412;2023-10-08T10:05:12;1.83;;;1.30;;
2848;SDS011;59355;52.416;13.412;2023-10-08T10:07:38;2.40;;;1.57;;
2848;SDS011;59355;52.416;13.412;2023-10-08T10:10:24;1.80;;;1.30;;
2848;SDS011;59355;52.416;13.412;2023-10-08T10:12:57;2.93;;;1.60;;
2848;SDS011;59355;52.416;13.412;2023-10-08T10:15:24;4.67;;;1.90;;
2848;SDS011;59355;52.416;13.412;2023-10-08T10:17:49;4.17;;;1.70;;
2848;SDS011;59355;52.416;13.412;2023-10-08T10:20:16;3.30;;;1.70;;
2848;SDS011;59355;52.416;13.412;2023-10-08T10:22:41;2.73;;;1.53;;
2848;SDS011;59355;52.416;13.412;2023-10-08T10:25:10;2.87;;;1.20;;
2848;SDS011;59355;52.416;13.412;2023-10-08T10:30:29;2.57;;;1.70;;
2848;SDS011;59355;52.416;13.412;2023-10-08T10:32:54;2.47;;;1.40;;
2848;SDS011;59355;52.416;13.412;2023-10-08T10:35:19;2.20;;;1.33;;
2848;SDS011;59355;52.416;13.412;2023-10-08T10:37:48;2.90;;;1.50;;
2848;SDS011;59355;52.416;13.412;2023-10-08T10:40:28;3.70;;;1.53;;
2848;SDS011;59355;52.416;13.412;2023-10-08T10:43:06;2.60;;;1.50;;
2848;SDS011;59355;52.416;13.412;2023-10-08T10:45:32;2.43;;;1.37;;
2848;SDS011;59355;52.416;13.412;2023-10-08T10:48:04;2.07;;;1.40;;
2848;SDS011;59355;52.416;13.412;2023-10-08T10:50:46;3.27;;;1.60;;
2848;SDS011;59355;52.416;13.412;2023-10-08T10:53:37;2.23;;;1.57;;
2848;SDS011;59355;52.416;13.412;2023-10-08T10:56:13;2.77;;;1.40;;
2848;SDS011;59355;52.416;13.412;2023-10-08T10:58:45;2.30;;;1.47;;
2848;SDS011;59355;52.416;13.412;2023-10-08T11:01:11;3.30;;;1.67;;
2848;SDS011;59355;52.416;13.412;2023-10-08T11:03:50;2.63;;;1.40;;
2848;SDS011;59355;52.416;13.412;2023-10-08T11:06:16;1.80;;;1.30;;
2848;SDS011;59355;52.416;13.412;2023-10-08T11:08:47;2.10;;;1.50;;
2848;SDS011;59355;52.416;13.412;2023-10-08T11:11:17;2.20;;;1.33;;
2848;SDS011;59355;52.416;13.412;2023-10-08T11:13:43;1.70;;;1.20;;
2848;SDS011;59355;52.416;13.412;2023-10-08T11:16:12;2.43;;;1.50;;
2848;SDS011;59355;52.416;13.412;2023-10-08T11:18:43;2.03;;;1.40;;
2848;SDS011;59355;52.416;13.412;2023-10-08T11:21:12;4.40;;;1.50;;
2848;SDS011;59355;52.416;13.412;2023-10-08T11:23:44;1.70;;;1.10;;
2848;SDS011;59355;52.416;13.412;2023-10-08T11:26:20;1.90;;;1.30;;
2848;SDS011;59355;52.416;13.412;2023-10-08T11:28:56;2.33;;;1.40;;
2848;SDS011;59355;52.416;13.412;2023-10-08T11:31:25;2.20;;;1.50;;
2848;SDS011;59355;52.416;13.412;2023-10-08T11:33:52;2.93;;;1.50;;
2848;SDS011;59355;52.416;13.412;2023-10-08T11:36:24;3.13;;;1.60;;
2848;SDS011;59355;52.416;13.412;2023-10-08T11:39:08;2.20;;;1.30;;
2848;SDS011;59355;52.416;13.412;2023-10-08T11:41:36;3.80;;;1.70;;
2848;SDS011;59355;52.416;13.412;2023-10-08T11:44:15;2.03;;;1.20;;
2848;SDS011;59355;52.416;13.412;2023-10-08T11:46:44;2.23;;;1.40;;
2848;SDS011;59355;52.416;13.412;2023-10-08T11:49:10;2.10;;;1.30;;
2848;SDS011;59355;52.416;13.412;2023-10-08T11:51:42;2.40;;;1.30;;
2848;SDS011;59355;52.416;13.412;2023-10-08T11:54:08;3.30;;;1.80;;
2848;SDS011;59355;52.416;13.412;2023-10-08T11:56:36;2.10;;;1.20;;
2848;SDS011;59355;52.416;13.412;2023-10-08T11:59:03;2.57;;;1.60;;
2848;SDS011;59355;52.416;13.412;2023-10-08T12:01:33;1.90;;;1.47;;
2848;SDS011;59355;52.416;13.412;2023-10-08T12:04:00;2.67;;;1.60;;
2848;SDS011;59355;52.416;13.412;2023-10-08T12:06:29;4.93;;;1.63;;
2848;SDS011;59355;52.416;13.412;2023-10-08T12:08:55;3.33;;;1.40;;
2848;SDS011;59355;52.416;13.412;2023-10-08T12:11:23;2.40;;;1.50;;
2848;SDS011;59355;52.416;13.412;2023-10-08T12:13:58;1.90;;;1.43;;
2848;SDS011;59355;52.416;13.412;2023-10-08T12:16:26;2.70;;;1.40;;
2848;SDS011;59355;52.416;13.412;2023-10-08T12:18:54;4.03;;;1.57;;
2848;SDS011;59355;52.416;13.412;2023-10-08T12:21:24;2.10;;;1.30;;
2848;SDS011;59355;52.416;13.412;2023-10-08T12:23:50;2.10;;;1.43;;
2848;SDS011;59355;52.416;13.412;2023-10-08T12:26:16;2.10;;;1.60;;
2848;SDS011;59355;52.416;13.412;2023-10-08T12:28:44;3.87;;;1.30;;
2848;SDS011;59355;52.416;13.412;2023-10-08T12:31:13;2.20;;;1.53;;
2848;SDS011;59355;52.416;13.412;2023-10-08T12:33:40;3.03;;;1.60;;
2848;SDS011;59355;52.416;13.412;2023-10-08T12:36:06;2.33;;;1.50;;
2848;SDS011;59355;52.416;13.412;2023-10-08T12:38:41;2.70;;;1.50;;
2848;SDS011;59355;52.416;13.412;2023-10-08T12:41:07;2.80;;;1.53;;
2848;SDS011;59355;52.416;13.412;2023-10-08T12:43:37;1.83;;;1.20;;
2848;SDS011;59355;52.416;13.412;2023-10-08T12:46:03;4.70;;;1.60;;
2848;SDS011;59355;52.416;13.412;2023-10-08T12:48:29;2.63;;;1.40;;
2848;SDS011;59355;52.416;13.412;2023-10-08T12:50:54;2.57;;;1.53;;
2848;SDS011;59355;52.416;13.412;2023-10-08T12:53:24;2.20;;;1.43;;
2848;SDS011;59355;52.416;13.412;2023-10-08T12:55:59;2.00;;;1.27;;
2848;SDS011;59355;52.416;13.412;2023-10-08T12:58:30;2.07;;;1.50;;
2848;SDS011;59355;52.416;13.412;2023-10-08T13:00:56;2.27;;;1.70;;
2848;SDS011;59355;52.416;13.412;2023-10-08T13:03:23;2.90;;;1.30;;
2848;SDS011;59355;52.416;13.412;2023-10-08T13:05:50;2.20;;;1.37;;
2848;SDS011;59355;52.416;13.412;2023-10-08T13:08:18;2.47;;;1.40;;
2848;SDS011;59355;52.416;13.412;2023-10-08T13:10:44;1.70;;;1.30;;
2848;SDS011;59355;52.416;13.412;2023-10-08T13:13:13;2.57;;;1.70;;
2848;SDS011;59355;52.416;13.412;2023-10-08T13:15:41;3.97;;;1.53;;
2848;SDS011;59355;52.416;13.412;2023-10-08T13:18:07;2.53;;;1.40;;
2848;SDS011;59355;52.416;13.412;2023-10-08T13:20:33;3.00;;;1.47;;
2848;SDS011;59355;52.416;13.412;2023-10-08T13:23:00;3.20;;;1.50;;
2848;SDS011;59355;52.416;13.412;2023-10-08T13:25:25;3.03;;;1.80;;
2848;SDS011;59355;52.416;13.412;2023-10-08T13:27:51;2.37;;;1.57;;
2848;SDS011;59355;52.416;13.412;2023-10-08T13:30:17;2.07;;;1.63;;
2848;SDS011;59355;52.416;13.412;2023-10-08T13:32:42;2.30;;;1.60;;
2848;SDS011;59355;52.416;13.412;2023-10-08T13:35:08;2.20;;;1.40;;
2848;SDS011;59355;52.416;13.412;2023-10-08T13:37:34;3.83;;;2.10;;
2848;SDS011;59355;52.416;13.412;2023-10-08T13:40:00;1.80;;;1.30;;
2848;SDS011;59355;52.416;13.412;2023-10-08T13:42:25;2.43;;;1.70;;
2848;SDS011;59355;52.416;13.412;2023-10-08T13:44:52;2.50;;;1.60;;
2848;SDS011;59355;52.416;13.412;2023-10-08T13:47:18;1.90;;;1.40;;
2848;SDS011;59355;52.416;13.412;2023-10-08T13:49:44;4.23;;;2.50;;
2848;SDS011;59355;52.416;13.412;2023-10-08T13:52:09;3.73;;;1.70;;
2848;SDS011;59355;52.416;13.412;2023-10-08T13:54:35;2.97;;;1.40;;
2848;SDS011;59355;52.416;13.412;2023-10-08T13:57:06;2.57;;;1.73;;
2848;SDS011;59355;52.416;13.412;2023-10-08T13:59:33;2.93;;;1.70;;
2848;SDS011;59355;52.416;13.412;2023-10-08T14:01:59;2.63;;;1.50;;
2848;SDS011;59355;52.416;13.412;2023-10-08T14:04:26;2.33;;;1.90;;
2848;SDS011;59355;52.416;13.412;2023-10-08T14:06:55;2.13;;;1.40;;
2848;SDS011;59355;52.416;13.412;2023-10-08T14:09:23;4.00;;;1.50;;
2848;SDS011;59355;52.416;13.412;2023-10-08T14:11:56;2.20;;;1.47;;
2848;SDS011;59355;52.416;13.412;2023-10-08T14:14:21;2.40;;;1.63;;
2848;SDS011;59355;52.416;13.412;2023-10-08T14:16:49;2.53;;;1.83;;
2848;SDS011;59355;52.416;13.412;2023-10-08T14:19:17;2.10;;;1.60;;
2848;SDS011;59355;52.416;13.412;2023-10-08T14:21:43;2.77;;;1.60;;
2848;SDS011;59355;52.416;13.412;2023-10-08T14:24:18;3.70;;;1.70;;
2848;SDS011;59355;52.416;13.412;2023-10-08T14:26:43;2.77;;;1.47;;
2848;SDS011;59355;52.416;13.412;2023-10-08T14:29:12;3.47;;;1.60;;
2848;SDS011;59355;52.416;13.412;2023-10-08T14:31:40;8.70;;;1.83;;
2848;SDS011;59355;52.416;13.412;2023-10-08T14:34:07;2.50;;;1.67;;
2848;SDS011;59355;52.416;13.412;2023-10-08T14:36:41;2.47;;;1.77;;
2848;SDS011;59355;52.416;13.412;2023-10-08T14:39:32;3.90;;;1.73;;
2848;SDS011;59355;52.416;13.412;2023-10-08T14:42:19;3.33;;;1.40;;
2848;SDS011;59355;52.416;13.412;2023-10-08T14:45:03;2.23;;;1.47;;
2848;SDS011;59355;52.416;13.412;2023-10-08T14:47:35;2.43;;;1.40;;
2848;SDS011;59355;52.416;13.412;2023-10-08T14:50:01;2.97;;;1.40;;
2848;SDS011;59355;52.416;13.412;2023-10-08T14:52:29;2.97;;;1.67;;
2848;SDS011;59355;52.416;13.412;2023-10-08T14:54:56;2.80;;;1.30;;
2848;SDS011;59355;52.416;13.412;2023-10-08T14:57:21;2.27;;;1.47;;
2848;SDS011;59355;52.416;13.412;2023-10-08T14:59:47;3.93;;;2.20;;
2848;SDS011;59355;52.416;13.412;2023-10-08T15:02:13;2.40;;;1.77;;
2848;SDS011;59355;52.416;13.412;2023-10-08T15:04:38;2.20;;;1.60;;
2848;SDS011;59355;52.416;13.412;2023-10-08T15:07:04;3.10;;;1.50;;
2848;SDS011;59355;52.416;13.412;2023-10-08T15:09:37;2.10;;;1.40;;
2848;SDS011;59355;52.416;13.412;2023-10-08T15:12:04;3.43;;;1.53;;
2848;SDS011;59355;52.416;13.412;2023-10-08T15:14:31;2.73;;;1.50;;
2848;SDS011;59355;52.416;13.412;2023-10-08T15:16:56;2.20;;;1.33;;